»·PEaware :: N65T KLAS-KTVL

N65T :: KLAS-KTVL

FLIGHT INFORMATION

Flight Status: Arrived
Operator: Privately registered:
United States
More flights under this callsign
Pilot: Maxwell R. (25989)
Aircraft: Unknown
(LEGA)
More flights by this aircraft type
Origin: KLAS McCarran Intl
United States
Destination: KTVL Lake Tahoe
United States
More flights between these airports :: More routes between these airports
Route: +SHEAD1 KENNO
File this flight plan on PilotEdge
Remarks: RMK / SIMBRIEF
Altitude:
(Current/Filed)
38,000ft
Speed:
(Current/Filed)
427kts
Departed: 12-Sep-19 11:57 AM
Arrived: 12-Sep-19 01:06 PM
Distance/Time
Traveled:
286nm/1:09
Distance/Time
To Go:
Arrived

Flight Plot

Page will automatically refresh every two minutes.

Flight plan parsing failed; only flown route is shown


Map Options




Map Legend


Flown Route
Filed Route
Departure Airport
Arrival Airport
Navaid (VOR, NDB)
Fix

Horizontal Profiles

Position Reports

Time Latitude Longitude Heading Altitude Ground
Speed
12-Sep-19 11:39 36.081976 -115.171049 0 2171ft 0kts
12-Sep-19 11:40 36.081976 -115.171049 0 2171ft 0kts
12-Sep-19 11:41 36.081976 -115.171049 0 2171ft 0kts
12-Sep-19 11:42 36.081976 -115.171049 0 2171ft 0kts
12-Sep-19 11:43 36.081976 -115.171049 0 2171ft 0kts
12-Sep-19 11:44 36.081976 -115.171049 0 2171ft 0kts
12-Sep-19 11:45 36.081976 -115.171049 0 2171ft 0kts
12-Sep-19 11:46 36.081976 -115.171049 0 2171ft 0kts
12-Sep-19 11:47 36.081976 -115.171049 0 2171ft 0kts
12-Sep-19 11:48 36.081976 -115.171049 0 2171ft 0kts
12-Sep-19 11:49 36.081348 -115.171347 84 2172ft 3kts
12-Sep-19 11:50 36.081426 -115.170564 84 2171ft 7kts
12-Sep-19 11:51 36.081473 -115.169759 88 2169ft 7kts
12-Sep-19 11:52 36.084873 -115.167295 25 2155ft 21kts
12-Sep-19 11:53 36.090741 -115.163958 20 2129ft 22kts
12-Sep-19 11:54 36.096509 -115.160643 23 2103ft 23kts
12-Sep-19 11:55 36.099205 -115.158269 107 2092ft 1kts
12-Sep-19 11:56 36.084100 -115.165576 205 2264ft 162kts
12-Sep-19 11:57 36.030643 -115.185135 191 4508ft 269kts
12-Sep-19 11:58 35.992908 -115.257152 285 5738ft 280kts
12-Sep-19 11:59 36.051120 -115.307283 357 6962ft 269kts
12-Sep-19 12:00 36.098448 -115.247486 96 6973ft 260kts
12-Sep-19 12:01 36.044627 -115.189437 149 7033ft 282kts
12-Sep-19 12:02 35.976042 -115.216402 244 8967ft 306kts
12-Sep-19 12:03 35.984405 -115.317371 283 13560ft 314kts
12-Sep-19 12:04 36.002901 -115.424473 267 17496ft 332kts
12-Sep-19 12:05 35.984000 -115.544085 257 19922ft 388kts
12-Sep-19 12:07 35.957364 -115.674010 257 23530ft 398kts
12-Sep-19 12:08 35.929604 -115.808308 257 26743ft 409kts
12-Sep-19 12:09 35.904560 -115.945720 274 29557ft 415kts
12-Sep-19 12:10 35.972880 -116.057141 314 31879ft 429kts
12-Sep-19 12:11 36.061272 -116.159766 314 33937ft 445kts
12-Sep-19 12:12 36.152608 -116.265735 314 35736ft 457kts
12-Sep-19 12:13 36.245673 -116.375050 312 36978ft 468kts
12-Sep-19 12:14 36.341771 -116.487301 312 37222ft 481kts
12-Sep-19 12:15 36.435728 -116.597416 312 37222ft 477kts
12-Sep-19 12:16 36.531990 -116.710256 312 37218ft 476kts
12-Sep-19 12:17 36.640127 -116.805699 325 37263ft 481kts
12-Sep-19 12:18 36.753723 -116.892706 323 37218ft 482kts
12-Sep-19 12:19 36.867954 -116.980052 324 37254ft 481kts
12-Sep-19 12:20 36.981669 -117.067113 324 37361ft 481kts
12-Sep-19 12:21 37.095336 -117.154455 323 37360ft 479kts
12-Sep-19 12:22 37.207827 -117.241223 323 37360ft 475kts
12-Sep-19 12:23 37.313842 -117.336688 307 37319ft 468kts
12-Sep-19 12:24 37.398908 -117.463369 307 36367ft 476kts
12-Sep-19 12:25 37.482448 -117.590733 307 36158ft 471kts
12-Sep-19 12:26 37.564312 -117.716104 306 35130ft 459kts
12-Sep-19 12:26 37.631358 -117.819139 306 34306ft 457kts
12-Sep-19 12:28 37.725125 -117.963784 306 33142ft 457kts
12-Sep-19 12:28 37.787962 -118.070676 302 32310ft 457kts
12-Sep-19 12:29 37.861741 -118.202220 303 31307ft 460kts
12-Sep-19 12:31 37.949972 -118.354580 304 30180ft 459kts
12-Sep-19 12:31 38.012760 -118.462506 304 29262ft 457kts
12-Sep-19 12:32 38.088084 -118.591444 304 28232ft 449kts
12-Sep-19 12:34 38.172390 -118.735185 303 26591ft 434kts
12-Sep-19 12:34 38.232016 -118.836631 303 25401ft 428kts
12-Sep-19 12:35 38.301989 -118.955195 304 23167ft 411kts
12-Sep-19 12:36 38.369988 -119.070239 304 20949ft 402kts
12-Sep-19 12:37 38.437858 -119.182662 308 18740ft 399kts
12-Sep-19 12:38 38.508468 -119.285095 309 18332ft 380kts
12-Sep-19 12:39 38.579315 -119.386987 309 18333ft 380kts
12-Sep-19 12:40 38.649225 -119.489478 309 17581ft 392kts
12-Sep-19 12:41 38.722738 -119.595674 309 16596ft 403kts
12-Sep-19 12:42 38.796368 -119.703879 308 15890ft 403kts
12-Sep-19 12:43 38.864597 -119.803800 308 15706ft 324kts
12-Sep-19 12:44 38.921119 -119.886774 308 14065ft 304kts
12-Sep-19 12:45 38.977094 -119.968986 308 14019ft 305kts
12-Sep-19 12:46 39.032398 -120.050509 308 14025ft 296kts
12-Sep-19 12:47 39.082563 -120.124569 308 14017ft 251kts
12-Sep-19 12:48 39.127158 -120.190499 308 14022ft 244kts
12-Sep-19 12:49 39.170829 -120.255161 308 14022ft 242kts
12-Sep-19 12:50 39.223829 -120.248312 77 12922ft 245kts
12-Sep-19 12:51 39.228872 -120.165407 68 12416ft 219kts
12-Sep-19 12:52 39.254135 -120.093763 60 12418ft 219kts
12-Sep-19 12:53 39.282752 -120.025081 62 12409ft 211kts
12-Sep-19 12:54 39.306251 -119.959784 96 12375ft 188kts
12-Sep-19 12:55 39.270419 -119.934300 199 12138ft 157kts
12-Sep-19 12:56 39.225790 -119.945600 191 11184ft 167kts
12-Sep-19 12:57 39.179146 -119.952944 189 10226ft 167kts
12-Sep-19 12:58 39.133776 -119.959235 189 10206ft 159kts
12-Sep-19 12:59 39.092042 -119.964925 189 9613ft 150kts
12-Sep-19 13:00 39.050666 -119.970516 189 9252ft 147kts
12-Sep-19 13:01 39.009007 -119.976135 188 8281ft 151kts
12-Sep-19 13:02 38.967806 -119.981090 178 7194ft 146kts
12-Sep-19 13:03 38.928212 -119.985289 190 6861ft 143kts
12-Sep-19 13:04 38.891899 -119.995889 193 6268ft 83kts
12-Sep-19 13:05 38.882650 -119.998983 262 6263ft 13kts
12-Sep-19 13:06 38.886709 -119.998431 12 6267ft 23kts
12-Sep-19 13:07 38.892382 -119.997054 306 6274ft 12kts
12-Sep-19 13:08 38.892173 -119.998325 40 6279ft 8kts

Navigation Log

Ident Type
Flight plan parsing failed, navigation log unavailable